KJAS/JAS METAR and TAF weather

Enter ICAO airport designator
Station Type Date Time Source
KJAS METAR 2021/04/14 18:55 UTC NOAA

KJAS 141855Z AUTO 08005KT 10SM SCT008 SCT011 OVC025 19/18 A2999 RMK AO2 LTG DSNT E


Station Type Date Time Source
KJAS Decoded METAR 2021/04/14 18:55 UTC NOAA

Jasper, Jasper County-Bell Field Airport, TX, United States (KJAS) 30-53-08N 094-02-05W
Apr 14, 2021 - 02:55 PM EDT / 2021.04.14 1855 UTC
Wind: from the E (080 degrees) at 6 MPH (5 KT):0
Visibility: 10 mile(s):0
Sky conditions: overcast
Weather: Lightning observed
Temperature: 66 F (19 C)
Dew Point: 64 F (18 C)
Relative Humidity: 93%
Pressure (altimeter): 29.99 in. Hg (1015 hPa)
ob: KJAS 141855Z AUTO 08005KT 10SM SCT008 SCT011 OVC025 19/18 A2999 RMK AO2 LTG DSNT E
cycle: 19

Station Type Date Time Source
KJAS TAF UTC NOAA

Error!

Example: see airport list